| time (UTC) | temp C | wind direction | speed KPH | gust KPH | rain 1hr cm | rain 24hr cm | rain mn cm | humidity % | barometer mb |
| 20260508192025 | 22 | 276 | 9.7 | 25.7 | 0.00 | 0.00 | 0.00 | 30 | 1012.2 |
| 20260508191505 | 22 | 256 | 6.4 | 19.3 | 0.00 | 0.00 | 0.00 | 30 | 1012.2 |
| 20260508191025 | 22 | 241 | 6.4 | 19.3 | 0.00 | 0.00 | 0.00 | 30 | 1012.2 |
| 20260508190526 | 22 | 251 | 9.7 | 27.4 | 0.00 | 0.00 | 0.00 | 29 | 1012.3 |
| 20260508190004 | 22 | 199 | 11.3 | 27.4 | 0.00 | 0.00 | 0.00 | 29 | 1012.4 |
| 20260508185525 | 22 | 185 | 9.7 | 25.7 | 0.00 | 0.00 | 0.00 | 29 | 1012.3 |
| 20260508185025 | 22 | 202 | 8.0 | 17.7 | 0.00 | 0.00 | 0.00 | 31 | 1012.5 |
| 20260508184524 | 22 | 206 | 6.4 | 22.5 | 0.00 | 0.00 | 0.00 | 30 | 1012.4 |
| 20260508184025 | 22 | 226 | 8.0 | 22.5 | 0.00 | 0.00 | 0.00 | 30 | 1012.6 |
| 20260508183525 | 22 | 241 | 9.7 | 25.7 | 0.00 | 0.00 | 0.00 | 30 | 1012.5 |
| 20260508183004 | 22 | 226 | 8.0 | 25.7 | 0.00 | 0.00 | 0.00 | 29 | 1012.8 |
| 20260508182504 | 22 | 204 | 9.7 | 22.5 | 0.00 | 0.00 | 0.00 | 31 | 1012.6 |
| 20260508182004 | 22 | 222 | 6.4 | 22.5 | 0.00 | 0.00 | 0.00 | 31 | 1012.6 |
| 20260508181525 | 22 | 249 | 4.8 | 20.9 | 0.00 | 0.00 | 0.00 | 31 | 1012.7 |
| 20260508181025 | 22 | 227 | 8.0 | 20.9 | 0.00 | 0.00 | 0.00 | 31 | 1012.8 |
| 20260508180526 | 21 | 228 | 11.3 | 22.5 | 0.00 | 0.00 | 0.00 | 31 | 1013.1 |
| 20260508180004 | 22 | 257 | 8.0 | 22.5 | 0.00 | 0.00 | 0.00 | 30 | 1013.0 |
| 20260508175525 | 22 | 271 | 6.4 | 25.7 | 0.00 | 0.00 | 0.00 | 30 | 1013.0 |
| 20260508175025 | 21 | 222 | 8.0 | 25.7 | 0.00 | 0.00 | 0.00 | 32 | 1013.1 |
| 20260508174504 | 21 | 222 | 8.0 | 24.1 | 0.00 | 0.00 | 0.00 | 32 | 1013.2 |
| 20260508174025 | 21 | 215 | 9.7 | 20.9 | 0.00 | 0.00 | 0.00 | 33 | 1013.2 |
| 20260508173525 | 21 | 222 | 8.0 | 25.7 | 0.00 | 0.00 | 0.00 | 33 | 1013.2 |
| 20260508173004 | 21 | 257 | 8.0 | 25.7 | 0.00 | 0.00 | 0.00 | 32 | 1013.3 |
| 20260508172524 | 21 | 273 | 9.7 | 25.7 | 0.00 | 0.00 | 0.00 | 34 | 1013.3 |
| 20260508172004 | 20 | 264 | 11.3 | 35.4 | 0.00 | 0.00 | 0.00 | 32 | 1013.4 |
| 20260508171504 | 20 | 256 | 11.3 | 35.4 | 0.00 | 0.00 | 0.00 | 32 | 1013.6 |
| 20260508171004 | 20 | 265 | 11.3 | 32.2 | 0.00 | 0.00 | 0.00 | 34 | 1013.5 |
| 20260508170525 | 21 | 256 | 9.7 | 32.2 | 0.00 | 0.00 | 0.00 | 32 | 1013.7 |
| 20260508170004 | 21 | 258 | 4.8 | 16.1 | 0.00 | 0.00 | 0.00 | 32 | 1013.6 |
| 20260508165504 | 21 | 241 | 4.8 | 17.7 | 0.00 | 0.00 | 0.00 | 34 | 1013.6 |
| 20260508165024 | 21 | 220 | 6.4 | 25.7 | 0.00 | 0.00 | 0.00 | 34 | 1013.7 |
| 20260508164504 | 20 | 195 | 8.0 | 25.7 | 0.00 | 0.00 | 0.00 | 34 | 1013.7 |
| 20260508164025 | 20 | 212 | 6.4 | 20.9 | 0.00 | 0.00 | 0.00 | 34 | 1013.9 |
| 20260508163526 | 20 | 273 | 8.0 | 24.1 | 0.00 | 0.00 | 0.00 | 35 | 1013.8 |
| 20260508163025 | 20 | 262 | 8.0 | 25.7 | 0.00 | 0.00 | 0.00 | 35 | 1014.0 |
| 20260508162505 | 20 | 247 | 8.0 | 27.4 | 0.00 | 0.00 | 0.00 | 37 | 1014.0 |
| 20260508162004 | 20 | 271 | 9.7 | 27.4 | 0.00 | 0.00 | 0.00 | 35 | 1014.1 |
| 20260508161504 | 20 | 265 | 9.7 | 27.4 | 0.00 | 0.00 | 0.00 | 35 | 1014.2 |
| 20260508161006 | 20 | 243 | 8.0 | 27.4 | 0.00 | 0.00 | 0.00 | 35 | 1014.2 |
| 20260508160503 | 20 | 256 | 8.0 | 22.5 | 0.00 | 0.00 | 0.00 | 37 | 1014.2 |
| 20260508160025 | 19 | 241 | 8.0 | 20.9 | 0.00 | 0.00 | 0.00 | 38 | 1014.2 |
| 20260508155505 | 19 | 220 | 8.0 | 25.7 | 0.00 | 0.00 | 0.00 | 38 | 1014.4 |
| 20260508155025 | 18 | 237 | 9.7 | 25.7 | 0.00 | 0.00 | 0.00 | 37 | 1014.4 |
| 20260508154505 | 18 | 250 | 9.7 | 22.5 | 0.00 | 0.00 | 0.00 | 38 | 1014.5 |
| 20260508154025 | 18 | 246 | 9.7 | 22.5 | 0.00 | 0.00 | 0.00 | 37 | 1014.6 |
| 20260508153525 | 18 | 253 | 8.0 | 20.9 | 0.00 | 0.00 | 0.00 | 36 | 1014.8 |
| 20260508153024 | 18 | 256 | 9.7 | 25.7 | 0.00 | 0.00 | 0.00 | 38 | 1014.8 |
| 20260508152525 | 18 | 266 | 8.0 | 25.7 | 0.00 | 0.00 | 0.00 | 37 | 1014.9 |
| 20260508152004 | 18 | 285 | 8.0 | 22.5 | 0.00 | 0.00 | 0.00 | 38 | 1014.9 |
| 20260508151504 | 18 | 265 | 8.0 | 22.5 | 0.00 | 0.00 | 0.00 | 37 | 1014.9 |
| 20260508151025 | 18 | 238 | 9.7 | 24.1 | 0.00 | 0.00 | 0.00 | 36 | 1015.1 |
| 20260508150525 | 18 | 228 | 9.7 | 24.1 | 0.00 | 0.00 | 0.00 | 36 | 1015.1 |
| 20260508150005 | 18 | 218 | 8.0 | 25.7 | 0.00 | 0.00 | 0.00 | 38 | 1015.0 |
| 20260508145503 | 18 | 218 | 8.0 | 25.7 | 0.00 | 0.00 | 0.00 | 37 | 1015.0 |
| 20260508145025 | 18 | 232 | 6.4 | 20.9 | 0.00 | 0.00 | 0.00 | 41 | 1015.0 |
| 20260508144504 | 18 | 239 | 4.8 | 14.5 | 0.00 | 0.00 | 0.00 | 41 | 1015.0 |
| 20260508144004 | 17 | 263 | 6.4 | 17.7 | 0.00 | 0.00 | 0.00 | 41 | 1015.1 |
| 20260508143504 | 17 | 256 | 8.0 | 20.9 | 0.00 | 0.00 | 0.00 | 41 | 1015.2 |
| 20260508143004 | 17 | 227 | 8.0 | 20.9 | 0.00 | 0.00 | 0.00 | 41 | 1015.1 |
| 20260508142504 | 17 | 193 | 8.0 | 17.7 | 0.00 | 0.00 | 0.00 | 41 | 1015.2 |
| 20260508142025 | 17 | 196 | 4.8 | 14.5 | 0.00 | 0.00 | 0.00 | 40 | 1015.2 |
| 20260508141526 | 17 | 180 | 6.4 | 22.5 | 0.00 | 0.00 | 0.00 | 41 | 1015.2 |
| 20260508141004 | 17 | 190 | 6.4 | 22.5 | 0.00 | 0.00 | 0.00 | 40 | 1015.3 |
| 20260508140525 | 17 | 232 | 6.4 | 17.7 | 0.00 | 0.00 | 0.00 | 42 | 1015.3 |
| 20260508140025 | 17 | 232 | 6.4 | 17.7 | 0.00 | 0.00 | 0.00 | 41 | 1015.3 |
| 20260508135504 | 17 | 199 | 4.8 | 16.1 | 0.00 | 0.00 | 0.00 | 42 | 1015.3 |
| 20260508135004 | 17 | 210 | 4.8 | 14.5 | 0.00 | 0.00 | 0.00 | 44 | 1015.4 |
| 20260508134504 | 17 | 235 | 3.2 | 12.9 | 0.00 | 0.00 | 0.00 | 41 | 1015.4 |
| 20260508134025 | 16 | 186 | 1.6 | 6.4 | 0.00 | 0.00 | 0.00 | 46 | 1015.4 |
| 20260508133504 | 16 | 161 | 1.6 | 8.0 | 0.00 | 0.00 | 0.00 | 46 | 1015.4 |
| 20260508133025 | 16 | 138 | 3.2 | 8.0 | 0.00 | 0.00 | 0.00 | 47 | 1015.4 |
| 20260508132525 | 16 | 160 | 3.2 | 8.0 | 0.00 | 0.00 | 0.00 | 49 | 1015.5 |
| 20260508132004 | 16 | 208 | 3.2 | 8.0 | 0.00 | 0.00 | 0.00 | 49 | 1015.7 |
| 20260508131525 | 15 | 245 | 3.2 | 6.4 | 0.00 | 0.00 | 0.00 | 50 | 1015.7 |
| 20260508131004 | 15 | 228 | 3.2 | 6.4 | 0.00 | 0.00 | 0.00 | 51 | 1015.7 |
| 20260508130504 | 15 | 217 | 1.6 | 6.4 | 0.00 | 0.00 | 0.00 | 52 | 1015.7 |
| 20260508130004 | 15 | 191 | 1.6 | 6.4 | 0.00 | 0.00 | 0.00 | 56 | 1015.7 |
| 20260508125525 | 15 | 182 | 1.6 | 4.8 | 0.00 | 0.00 | 0.00 | 59 | 1015.7 |
| 20260508125025 | 14 | 222 | 1.6 | 4.8 | 0.00 | 0.00 | 0.00 | 61 | 1015.8 |
| 20260508124526 | 13 | 227 | 1.6 | 3.2 | 0.00 | 0.00 | 0.00 | 63 | 1015.8 |
| 20260508124004 | 13 | 235 | 1.6 | 6.4 | 0.00 | 0.00 | 0.00 | 65 | 1015.7 |
| 20260508123503 | 12 | 236 | 1.6 | 6.4 | 0.00 | 0.00 | 0.00 | 64 | 1015.6 |
| 20260508123004 | 12 | 138 | 0.0 | 3.2 | 0.00 | 0.00 | 0.00 | 71 | 1015.6 |
| 20260508122524 | 11 | 155 | 1.6 | 3.2 | 0.00 | 0.00 | 0.00 | 74 | 1015.7 |
| 20260508122025 | 10 | 186 | 1.6 | 3.2 | 0.00 | 0.00 | 0.00 | 79 | 1015.6 |
| 20260508121505 | 9 | 238 | 0.0 | 3.2 | 0.00 | 0.00 | 0.00 | 84 | 1015.7 |
| 20260508121027 | 8 | 261 | 0.0 | 3.2 | 0.00 | 0.00 | 0.00 | 88 | 1015.6 |
| 20260508120524 | 8 | 281 | 0.0 | 3.2 | 0.00 | 0.00 | 0.00 | 90 | 1015.6 |
| 20260508120025 | 7 | 0 | 0.0 | 0.0 | 0.00 | 0.00 | 0.00 | 91 | 1015.6 |
| 20260508115504 | 7 | 0 | 0.0 | 0.0 | 0.00 | 0.00 | 0.00 | 92 | 1015.5 |
| 20260508115024 | 6 | 0 | 0.0 | 0.0 | 0.00 | 0.00 | 0.00 | 92 | 1015.4 |
| 20260508114504 | 6 | 0 | 0.0 | 0.0 | 0.00 | 0.00 | 0.00 | 92 | 1015.3 |
| 20260508114003 | 6 | 0 | 0.0 | 0.0 | 0.00 | 0.00 | 0.00 | 92 | 1015.2 |
| 20260508113525 | 6 | 0 | 0.0 | 0.0 | 0.00 | 0.00 | 0.00 | 91 | 1015.1 |
| 20260508113026 | 6 | 0 | 0.0 | 0.0 | 0.00 | 0.00 | 0.00 | 91 | 1015.1 |
| 20260508112505 | 5 | 0 | 0.0 | 0.0 | 0.00 | 0.00 | 0.00 | 91 | 1015.1 |
| 20260508112025 | 5 | 0 | 0.0 | 0.0 | 0.00 | 0.00 | 0.00 | 91 | 1015.0 |
| 20260508111503 | 5 | 0 | 0.0 | 0.0 | 0.00 | 0.00 | 0.00 | 90 | 1015.0 |
| 20260508111025 | 5 | 0 | 0.0 | 0.0 | 0.00 | 0.00 | 0.00 | 90 | 1014.8 |
| 20260508110525 | 5 | 0 | 0.0 | 0.0 | 0.00 | 0.00 | 0.00 | 89 | 1014.8 |
| 20260508110025 | 5 | 0 | 0.0 | 0.0 | 0.00 | 0.00 | 0.00 | 89 | 1014.8 |
| 20260508105524 | 5 | 0 | 0.0 | 0.0 | 0.00 | 0.00 | 0.00 | 89 | 1014.8 |
| 20260508105004 | 5 | 0 | 0.0 | 0.0 | 0.00 | 0.00 | 0.00 | 89 | 1014.7 |
| 20260508104525 | 5 | 0 | 0.0 | 0.0 | 0.00 | 0.00 | 0.00 | 88 | 1014.7 |
| 20260508104024 | 5 | 0 | 0.0 | 0.0 | 0.00 | 0.00 | 0.00 | 88 | 1014.7 |
| 20260508103526 | 5 | 0 | 0.0 | 0.0 | 0.00 | 0.00 | 0.00 | 88 | 1014.7 |
| 20260508103024 | 5 | 0 | 0.0 | 0.0 | 0.00 | 0.00 | 0.00 | 88 | 1014.6 |
| 20260508102505 | 5 | 0 | 0.0 | 0.0 | 0.00 | 0.00 | 0.00 | 87 | 1014.5 |
| 20260508102004 | 5 | 0 | 0.0 | 0.0 | 0.00 | 0.00 | 0.00 | 87 | 1014.5 |
| 20260508101506 | 5 | 0 | 0.0 | 0.0 | 0.00 | 0.00 | 0.00 | 87 | 1014.4 |
| 20260508101025 | 5 | 0 | 0.0 | 0.0 | 0.00 | 0.00 | 0.00 | 86 | 1014.3 |
| 20260508100504 | 6 | 0 | 0.0 | 0.0 | 0.00 | 0.00 | 0.00 | 86 | 1014.3 |
| 20260508100025 | 6 | 0 | 0.0 | 0.0 | 0.00 | 0.00 | 0.00 | 86 | 1014.1 |
| 20260508095504 | 6 | 0 | 0.0 | 0.0 | 0.00 | 0.00 | 0.00 | 86 | 1014.2 |
| 20260508095025 | 6 | 0 | 0.0 | 0.0 | 0.00 | 0.00 | 0.00 | 86 | 1014.2 |
| 20260508094504 | 6 | 0 | 0.0 | 0.0 | 0.00 | 0.00 | 0.00 | 85 | 1014.2 |
| 20260508094004 | 6 | 0 | 0.0 | 0.0 | 0.00 | 0.00 | 0.00 | 84 | 1014.2 |
| 20260508093526 | 6 | 0 | 0.0 | 0.0 | 0.00 | 0.00 | 0.00 | 84 | 1014.1 |
| 20260508093004 | 6 | 0 | 0.0 | 0.0 | 0.00 | 0.00 | 0.00 | 84 | 1014.0 |
| 20260508092524 | 6 | 0 | 0.0 | 0.0 | 0.00 | 0.00 | 0.00 | 84 | 1014.0 |
| 20260508092025 | 7 | 0 | 0.0 | 0.0 | 0.00 | 0.00 | 0.00 | 83 | 1013.9 |
| 20260508091524 | 7 | 278 | 0.0 | 1.6 | 0.00 | 0.00 | 0.00 | 83 | 1014.0 |
| 20260508091004 | 7 | 278 | 0.0 | 1.6 | 0.00 | 0.00 | 0.00 | 83 | 1013.9 |
| 20260508090524 | 7 | 278 | 0.0 | 1.6 | 0.00 | 0.00 | 0.00 | 82 | 1013.9 |
| 20260508090025 | 7 | 278 | 0.0 | 1.6 | 0.00 | 0.00 | 0.00 | 82 | 1013.8 |
| 20260508085525 | 7 | 278 | 0.0 | 1.6 | 0.00 | 0.00 | 0.00 | 82 | 1013.8 |
| 20260508085024 | 7 | 278 | 0.0 | 1.6 | 0.00 | 0.00 | 0.00 | 81 | 1013.8 |
| 20260508084504 | 8 | 0 | 0.0 | 0.0 | 0.00 | 0.00 | 0.00 | 81 | 1013.7 |
| 20260508084024 | 8 | 0 | 0.0 | 0.0 | 0.00 | 0.00 | 0.00 | 80 | 1013.7 |
| 20260508083525 | 8 | 0 | 0.0 | 0.0 | 0.00 | 0.00 | 0.00 | 80 | 1013.6 |
| 20260508083003 | 8 | 0 | 0.0 | 0.0 | 0.00 | 0.00 | 0.00 | 80 | 1013.6 |
| 20260508082525 | 8 | 278 | 0.0 | 1.6 | 0.00 | 0.00 | 0.00 | 80 | 1013.6 |
| 20260508082024 | 8 | 291 | 0.0 | 3.2 | 0.00 | 0.00 | 0.00 | 80 | 1013.5 |
| 20260508081504 | 8 | 306 | 1.6 | 6.4 | 0.00 | 0.00 | 0.00 | 81 | 1013.4 |
| 20260508081025 | 8 | 308 | 1.6 | 6.4 | 0.00 | 0.00 | 0.00 | 81 | 1013.3 |
| 20260508080503 | 8 | 300 | 1.6 | 4.8 | 0.00 | 0.00 | 0.00 | 83 | 1013.3 |
| 20260508080025 | 8 | 317 | 1.6 | 8.0 | 0.00 | 0.00 | 0.00 | 83 | 1013.2 |
| 20260508075525 | 8 | 316 | 3.2 | 11.3 | 0.00 | 0.00 | 0.00 | 84 | 1013.1 |
| 20260508075005 | 8 | 304 | 3.2 | 11.3 | 0.00 | 0.00 | 0.00 | 85 | 1013.1 |
| 20260508074503 | 8 | 299 | 1.6 | 6.4 | 0.00 | 0.00 | 0.00 | 85 | 1013.0 |
| 20260508074026 | 8 | 286 | 1.6 | 6.4 | 0.00 | 0.00 | 0.00 | 86 | 1012.9 |
| 20260508073504 | 8 | 277 | 1.6 | 6.4 | 0.00 | 0.00 | 0.00 | 86 | 1012.9 |
| 20260508073004 | 8 | 302 | 1.6 | 6.4 | 0.00 | 0.00 | 0.00 | 86 | 1012.7 |
| 20260508072525 | 8 | 309 | 1.6 | 4.8 | 0.00 | 0.00 | 0.00 | 86 | 1012.6 |
| 20260508072005 | 9 | 309 | 0.0 | 4.8 | 0.00 | 0.00 | 0.00 | 86 | 1012.6 |
| 20260508071525 | 9 | 303 | 1.6 | 8.0 | 0.00 | 0.00 | 0.00 | 86 | 1012.5 |
| 20260508071024 | 9 | 281 | 1.6 | 8.0 | 0.00 | 0.00 | 0.00 | 86 | 1012.4 |
| 20260508070504 | 9 | 284 | 1.6 | 6.4 | 0.00 | 0.03 | 0.00 | 87 | 1012.3 |
| 20260508070004 | 9 | 298 | 1.6 | 6.4 | 0.00 | 0.03 | 0.00 | 87 | 1012.3 |
| 20260508065524 | 9 | 295 | 1.6 | 6.4 | 0.00 | 0.03 | 0.00 | 87 | 1012.2 |
| 20260508065026 | 9 | 294 | 1.6 | 8.0 | 0.00 | 0.03 | 0.00 | 87 | 1012.1 |
| 20260508064524 | 9 | 287 | 3.2 | 11.3 | 0.00 | 0.03 | 0.00 | 87 | 1012.1 |
| 20260508064025 | 9 | 275 | 3.2 | 11.3 | 0.00 | 0.03 | 0.00 | 87 | 1012.0 |
| 20260508063503 | 10 | 270 | 3.2 | 8.0 | 0.00 | 0.03 | 0.00 | 88 | 1011.9 |
| 20260508063004 | 10 | 255 | 3.2 | 11.3 | 0.00 | 0.03 | 0.00 | 88 | 1011.8 |
| 20260508062504 | 10 | 243 | 3.2 | 11.3 | 0.00 | 0.03 | 0.00 | 88 | 1011.8 |
| 20260508062025 | 10 | 249 | 3.2 | 9.7 | 0.00 | 0.03 | 0.00 | 88 | 1011.8 |
| 20260508061525 | 10 | 244 | 3.2 | 8.0 | 0.00 | 0.03 | 0.00 | 88 | 1011.9 |
| 20260508061003 | 10 | 247 | 3.2 | 11.3 | 0.00 | 0.03 | 0.00 | 88 | 1011.8 |
| 20260508060505 | 10 | 252 | 3.2 | 11.3 | 0.00 | 0.05 | 0.00 | 88 | 1011.8 |
| 20260508060005 | 10 | 253 | 1.6 | 4.8 | 0.00 | 0.05 | 0.00 | 88 | 1011.8 |
| 20260508055504 | 10 | 254 | 1.6 | 6.4 | 0.00 | 0.05 | 0.00 | 88 | 1011.7 |
| 20260508055004 | 10 | 236 | 3.2 | 6.4 | 0.00 | 0.05 | 0.00 | 88 | 1011.7 |
| 20260508054504 | 10 | 227 | 3.2 | 8.0 | 0.00 | 0.05 | 0.00 | 88 | 1011.7 |
| 20260508054003 | 10 | 224 | 3.2 | 8.0 | 0.00 | 0.05 | 0.00 | 87 | 1011.6 |
| 20260508053504 | 10 | 212 | 1.6 | 8.0 | 0.00 | 0.08 | 0.00 | 87 | 1011.6 |
| 20260508053004 | 10 | 230 | 1.6 | 6.4 | 0.00 | 0.08 | 0.00 | 87 | 1011.6 |
| 20260508052524 | 10 | 236 | 1.6 | 6.4 | 0.00 | 0.08 | 0.00 | 87 | 1011.6 |
| 20260508052004 | 10 | 231 | 1.6 | 6.4 | 0.00 | 0.08 | 0.00 | 86 | 1011.6 |
| 20260508051524 | 10 | 220 | 1.6 | 6.4 | 0.00 | 0.08 | 0.00 | 86 | 1011.6 |
| 20260508051025 | 10 | 213 | 1.6 | 8.0 | 0.00 | 0.08 | 0.00 | 86 | 1011.5 |
| 20260508050503 | 10 | 215 | 1.6 | 8.0 | 0.00 | 0.10 | 0.00 | 86 | 1011.5 |
| 20260508050004 | 10 | 210 | 3.2 | 9.7 | 0.00 | 0.10 | 0.00 | 86 | 1011.4 |
| 20260508045504 | 10 | 206 | 3.2 | 9.7 | 0.00 | 0.10 | 0.00 | 85 | 1011.4 |
| 20260508045003 | 10 | 211 | 3.2 | 9.7 | 0.00 | 0.10 | 0.00 | 85 | 1011.3 |
| 20260508044525 | 10 | 212 | 3.2 | 9.7 | 0.00 | 0.10 | 0.00 | 85 | 1011.3 |
| 20260508044004 | 10 | 202 | 3.2 | 9.7 | 0.00 | 0.10 | 0.00 | 85 | 1011.3 |
| 20260508043504 | 10 | 200 | 3.2 | 8.0 | 0.00 | 0.10 | 0.00 | 84 | 1011.3 |
| 20260508043004 | 10 | 213 | 1.6 | 8.0 | 0.00 | 0.10 | 0.00 | 84 | 1011.3 |
| 20260508042525 | 10 | 208 | 1.6 | 4.8 | 0.00 | 0.10 | 0.00 | 84 | 1011.2 |
| 20260508042024 | 11 | 199 | 1.6 | 6.4 | 0.00 | 0.10 | 0.00 | 84 | 1011.2 |
| 20260508041504 | 11 | 202 | 1.6 | 8.0 | 0.00 | 0.10 | 0.00 | 83 | 1011.2 |
| 20260508041025 | 11 | 207 | 1.6 | 8.0 | 0.00 | 0.10 | 0.00 | 83 | 1011.1 |
| 20260508040503 | 11 | 202 | 1.6 | 8.0 | 0.00 | 0.10 | 0.00 | 83 | 1011.1 |
| 20260508040025 | 11 | 184 | 1.6 | 9.7 | 0.00 | 0.10 | 0.00 | 83 | 1011.0 |
| 20260508035503 | 11 | 192 | 3.2 | 11.3 | 0.00 | 0.10 | 0.10 | 83 | 1011.0 |
| 20260508035026 | 11 | 205 | 3.2 | 11.3 | 0.00 | 0.10 | 0.10 | 83 | 1011.0 |
| 20260508034525 | 11 | 204 | 4.8 | 11.3 | 0.00 | 0.10 | 0.10 | 82 | 1011.0 |
| 20260508034004 | 11 | 199 | 3.2 | 9.7 | 0.00 | 0.10 | 0.10 | 82 | 1011.1 |
| 20260508033503 | 11 | 192 | 3.2 | 6.4 | 0.00 | 0.10 | 0.10 | 82 | 1011.0 |
| 20260508033004 | 11 | 195 | 3.2 | 6.4 | 0.00 | 0.10 | 0.10 | 81 | 1011.0 |
| 20260508032524 | 11 | 197 | 1.6 | 6.4 | 0.00 | 0.10 | 0.10 | 81 | 1011.0 |
| 20260508032024 | 11 | 187 | 3.2 | 8.0 | 0.00 | 0.10 | 0.10 | 80 | 1011.0 |
| 20260508031504 | 11 | 187 | 3.2 | 9.7 | 0.00 | 0.10 | 0.10 | 80 | 1011.0 |
| 20260508031003 | 11 | 189 | 3.2 | 9.7 | 0.00 | 0.10 | 0.10 | 80 | 1011.0 |
| 20260508030525 | 11 | 187 | 3.2 | 8.0 | 0.00 | 0.10 | 0.10 | 80 | 1011.0 |
| 20260508030024 | 11 | 184 | 3.2 | 9.7 | 0.00 | 0.10 | 0.10 | 79 | 1011.0 |
| 20260508025504 | 11 | 189 | 3.2 | 9.7 | 0.00 | 0.10 | 0.10 | 79 | 1010.9 |
| 20260508025003 | 11 | 194 | 1.6 | 6.4 | 0.00 | 0.10 | 0.10 | 79 | 1011.0 |
| 20260508024524 | 11 | 186 | 1.6 | 4.8 | 0.00 | 0.10 | 0.10 | 79 | 1011.0 |
| 20260508024025 | 11 | 190 | 1.6 | 4.8 | 0.00 | 0.10 | 0.10 | 78 | 1011.0 |
| 20260508023504 | 11 | 182 | 1.6 | 6.4 | 0.00 | 0.10 | 0.10 | 78 | 1010.9 |
| 20260508023026 | 11 | 178 | 3.2 | 6.4 | 0.00 | 0.10 | 0.10 | 77 | 1011.0 |
| 20260508022503 | 11 | 180 | 1.6 | 6.4 | 0.00 | 0.10 | 0.10 | 77 | 1011.0 |
| 20260508022004 | 11 | 184 | 1.6 | 8.0 | 0.00 | 0.10 | 0.10 | 77 | 1011.0 |
| 20260508021503 | 11 | 185 | 1.6 | 8.0 | 0.00 | 0.10 | 0.10 | 76 | 1011.0 |
| 20260508021004 | 11 | 186 | 1.6 | 8.0 | 0.00 | 0.10 | 0.10 | 76 | 1011.0 |
| 20260508020525 | 11 | 190 | 3.2 | 8.0 | 0.00 | 0.10 | 0.10 | 75 | 1011.0 |
| 20260508020025 | 11 | 191 | 1.6 | 8.0 | 0.00 | 0.10 | 0.10 | 75 | 1011.0 |
| 20260508015525 | 11 | 181 | 1.6 | 6.4 | 0.00 | 0.10 | 0.10 | 75 | 1010.7 |
| 20260508015025 | 11 | 188 | 3.2 | 9.7 | 0.00 | 0.10 | 0.10 | 74 | 1010.8 |
| 20260508014525 | 11 | 192 | 3.2 | 9.7 | 0.00 | 0.10 | 0.10 | 74 | 1010.8 |
| 20260508014003 | 12 | 199 | 1.6 | 8.0 | 0.00 | 0.10 | 0.10 | 73 | 1010.8 |
| 20260508013504 | 12 | 201 | 1.6 | 8.0 | 0.00 | 0.10 | 0.10 | 72 | 1010.7 |
| 20260508013004 | 12 | 193 | 1.6 | 9.7 | 0.00 | 0.10 | 0.10 | 71 | 1010.7 |
| 20260508012503 | 12 | 190 | 1.6 | 9.7 | 0.00 | 0.10 | 0.10 | 70 | 1010.7 |
| 20260508012025 | 12 | 189 | 1.6 | 8.0 | 0.00 | 0.10 | 0.10 | 70 | 1010.6 |
| 20260508011525 | 12 | 183 | 1.6 | 6.4 | 0.00 | 0.10 | 0.10 | 69 | 1010.4 |
| 20260508011027 | 12 | 179 | 1.6 | 8.0 | 0.00 | 0.10 | 0.10 | 69 | 1010.4 |
| 20260508010524 | 12 | 176 | 1.6 | 8.0 | 0.00 | 0.10 | 0.10 | 68 | 1010.2 |
| 20260508010025 | 12 | 176 | 1.6 | 8.0 | 0.00 | 0.10 | 0.10 | 67 | 1010.2 |
| 20260508005524 | 12 | 177 | 1.6 | 8.0 | 0.00 | 0.10 | 0.10 | 67 | 1010.1 |
| 20260508005024 | 12 | 180 | 1.6 | 8.0 | 0.00 | 0.10 | 0.10 | 66 | 1010.1 |
| 20260508004505 | 12 | 180 | 3.2 | 6.4 | 0.00 | 0.10 | 0.10 | 66 | 1009.9 |
| 20260508004005 | 13 | 183 | 3.2 | 12.9 | 0.00 | 0.10 | 0.10 | 65 | 1009.9 |
| 20260508003504 | 13 | 185 | 3.2 | 12.9 | 0.00 | 0.10 | 0.10 | 65 | 1009.9 |
| 20260508003024 | 13 | 186 | 4.8 | 11.3 | 0.00 | 0.10 | 0.10 | 65 | 1009.8 |
| 20260508002525 | 13 | 189 | 4.8 | 11.3 | 0.00 | 0.10 | 0.10 | 64 | 1009.8 |
| 20260508002024 | 13 | 189 | 3.2 | 11.3 | 0.00 | 0.10 | 0.10 | 64 | 1009.7 |
| 20260508001526 | 13 | 188 | 3.2 | 9.7 | 0.00 | 0.10 | 0.10 | 63 | 1009.7 |
| 20260508001003 | 13 | 184 | 3.2 | 9.7 | 0.00 | 0.10 | 0.10 | 62 | 1009.5 |
| 20260508000524 | 13 | 183 | 3.2 | 9.7 | 0.00 | 0.10 | 0.10 | 62 | 1009.6 |
| 20260508000025 | 13 | 182 | 1.6 | 9.7 | 0.00 | 0.10 | 0.10 | 62 | 1009.5 |
| 20260507235504 | 14 | 180 | 1.6 | 9.7 | 0.00 | 0.10 | 0.10 | 60 | 1009.3 |
| 20260507235005 | 14 | 174 | 3.2 | 9.7 | 0.00 | 0.10 | 0.10 | 60 | 1009.2 |
| 20260507234503 | 14 | 183 | 3.2 | 11.3 | 0.00 | 0.10 | 0.10 | 59 | 1009.3 |
| 20260507234025 | 14 | 193 | 3.2 | 11.3 | 0.00 | 0.10 | 0.10 | 58 | 1009.2 |
| 20260507233503 | 14 | 187 | 1.6 | 4.8 | 0.00 | 0.10 | 0.10 | 58 | 1009.2 |
| 20260507233025 | 15 | 183 | 3.2 | 9.7 | 0.00 | 0.10 | 0.10 | 58 | 1009.1 |
| 20260507232504 | 15 | 165 | 4.8 | 11.3 | 0.00 | 0.10 | 0.10 | 56 | 1009.1 |
| 20260507232026 | 15 | 156 | 3.2 | 14.5 | 0.00 | 0.10 | 0.10 | 56 | 1009.0 |
| 20260507231504 | 15 | 170 | 3.2 | 14.5 | 0.00 | 0.10 | 0.10 | 55 | 1009.0 |
| 20260507231025 | 15 | 160 | 4.8 | 12.9 | 0.00 | 0.10 | 0.10 | 55 | 1009.0 |
| 20260507230524 | 15 | 149 | 4.8 | 14.5 | 0.00 | 0.10 | 0.10 | 53 | 1009.0 |
| 20260507230005 | 16 | 159 | 4.8 | 14.5 | 0.00 | 0.10 | 0.10 | 53 | 1008.9 |
| 20260507225504 | 16 | 150 | 3.2 | 14.5 | 0.00 | 0.10 | 0.10 | 54 | 1008.8 |
| 20260507225024 | 16 | 138 | 3.2 | 14.5 | 0.00 | 0.10 | 0.10 | 54 | 1008.8 |
| 20260507224504 | 16 | 141 | 1.6 | 14.5 | 0.00 | 0.10 | 0.10 | 57 | 1008.7 |
| 20260507224024 | 16 | 143 | 3.2 | 14.5 | 0.00 | 0.10 | 0.10 | 53 | 1008.7 |
| 20260507223525 | 16 | 151 | 3.2 | 14.5 | 0.00 | 0.10 | 0.10 | 54 | 1008.7 |
| 20260507223024 | 16 | 159 | 3.2 | 14.5 | 0.00 | 0.10 | 0.10 | 52 | 1008.7 |
| 20260507222525 | 17 | 177 | 3.2 | 11.3 | 0.00 | 0.10 | 0.10 | 54 | 1008.6 |
| 20260507222004 | 17 | 185 | 3.2 | 11.3 | 0.00 | 0.10 | 0.10 | 52 | 1008.6 |
| 20260507221525 | 17 | 184 | 3.2 | 12.9 | 0.00 | 0.10 | 0.10 | 52 | 1008.6 |
| 20260507221024 | 17 | 146 | 3.2 | 12.9 | 0.00 | 0.10 | 0.10 | 52 | 1008.6 |
| 20260507220503 | 16 | 143 | 4.8 | 14.5 | 0.00 | 0.10 | 0.10 | 52 | 1008.7 |
| 20260507220005 | 17 | 139 | 4.8 | 14.5 | 0.00 | 0.10 | 0.10 | 51 | 1008.6 |
| 20260507215525 | 17 | 127 | 3.2 | 11.3 | 0.00 | 0.10 | 0.10 | 50 | 1008.6 |
| 20260507215005 | 17 | 144 | 3.2 | 11.3 | 0.00 | 0.10 | 0.10 | 51 | 1008.7 |
| 20260507214503 | 17 | 154 | 3.2 | 9.7 | 0.00 | 0.10 | 0.10 | 50 | 1008.7 |
| 20260507214026 | 17 | 162 | 3.2 | 8.0 | 0.00 | 0.10 | 0.10 | 50 | 1008.7 |
| 20260507213503 | 17 | 145 | 3.2 | 17.7 | 0.00 | 0.10 | 0.10 | 51 | 1008.7 |
| 20260507213003 | 17 | 114 | 3.2 | 17.7 | 0.00 | 0.10 | 0.10 | 51 | 1008.8 |
| 20260507212525 | 17 | 105 | 3.2 | 12.9 | 0.00 | 0.10 | 0.10 | 51 | 1008.7 |
| 20260507212003 | 17 | 138 | 3.2 | 11.3 | 0.00 | 0.10 | 0.10 | 51 | 1008.8 |
| 20260507211526 | 17 | 140 | 3.2 | 9.7 | 0.00 | 0.10 | 0.10 | 50 | 1008.8 |
| 20260507211004 | 17 | 129 | 3.2 | 9.7 | 0.00 | 0.10 | 0.10 | 52 | 1008.8 |
| 20260507210526 | 17 | 134 | 3.2 | 8.0 | 0.00 | 0.10 | 0.10 | 49 | 1008.8 |
| 20260507210024 | 17 | 137 | 3.2 | 11.3 | 0.00 | 0.10 | 0.10 | 48 | 1008.8 |
| 20260507205524 | 17 | 138 | 3.2 | 12.9 | 0.00 | 0.10 | 0.10 | 50 | 1008.8 |
| 20260507205004 | 17 | 183 | 3.2 | 12.9 | 0.00 | 0.10 | 0.10 | 48 | 1008.9 |
| 20260507204505 | 17 | 179 | 6.4 | 12.9 | 0.00 | 0.10 | 0.10 | 48 | 1009.0 |
| 20260507204025 | 17 | 159 | 6.4 | 12.9 | 0.00 | 0.10 | 0.10 | 48 | 1009.0 |
| 20260507203503 | 18 | 136 | 4.8 | 12.9 | 0.00 | 0.10 | 0.10 | 48 | 1008.7 |
| 20260507203004 | 18 | 133 | 3.2 | 9.7 | 0.00 | 0.10 | 0.10 | 50 | 1008.6 |
| 20260507202524 | 18 | 152 | 3.2 | 11.3 | 0.00 | 0.10 | 0.10 | 51 | 1008.7 |
| 20260507202003 | 18 | 160 | 3.2 | 11.3 | 0.00 | 0.10 | 0.10 | 49 | 1008.6 |
| 20260507201504 | 18 | 130 | 4.8 | 12.9 | 0.00 | 0.10 | 0.10 | 50 | 1008.6 |
| 20260507201003 | 17 | 99 | 6.4 | 17.7 | 0.00 | 0.10 | 0.10 | 49 | 1008.7 |
| 20260507200504 | 18 | 113 | 4.8 | 17.7 | 0.00 | 0.10 | 0.10 | 49 | 1008.6 |
| 20260507200003 | 18 | 180 | 3.2 | 12.9 | 0.00 | 0.10 | 0.10 | 48 | 1008.7 |
| 20260507195504 | 18 | 187 | 3.2 | 12.9 | 0.00 | 0.10 | 0.10 | 47 | 1008.7 |
| 20260507195024 | 18 | 130 | 3.2 | 11.3 | 0.00 | 0.10 | 0.10 | 49 | 1008.8 |
| 20260507194504 | 17 | 113 | 4.8 | 14.5 | 0.00 | 0.10 | 0.10 | 49 | 1008.9 |
| 20260507194003 | 17 | 119 | 4.8 | 14.5 | 0.00 | 0.10 | 0.10 | 48 | 1009.0 |
| 20260507193503 | 18 | 129 | 4.8 | 9.7 | 0.00 | 0.10 | 0.10 | 47 | 1009.2 |
| 20260507193024 | 18 | 144 | 3.2 | 12.9 | 0.00 | 0.10 | 0.10 | 47 | 1009.4 |
| 20260507192503 | 18 | 153 | 4.8 | 12.9 | 0.00 | 0.10 | 0.10 | 50 | 1009.5 |